createdAt,value
2018-04-02T00:00:36.777Z,6.37
2018-04-02T00:03:03.910Z,5.33
2018-04-02T00:05:31.415Z,5.53
2018-04-02T00:07:59.168Z,5.50
2018-04-02T00:10:27.023Z,6.07
2018-04-02T00:12:55.117Z,5.40
2018-04-02T00:15:22.922Z,6.10
2018-04-02T00:17:50.571Z,4.93
2018-04-02T00:20:18.270Z,5.43
2018-04-02T00:22:45.876Z,5.67
2018-04-02T00:25:13.530Z,5.63
2018-04-02T00:27:41.186Z,6.20
2018-04-02T00:30:08.673Z,7.03
2018-04-02T00:32:36.296Z,6.30
2018-04-02T00:35:03.808Z,6.90
2018-04-02T00:37:31.453Z,5.83
2018-04-02T00:39:58.937Z,7.23
2018-04-02T00:42:26.565Z,6.50
2018-04-02T00:44:54.172Z,6.53
2018-04-02T00:47:21.706Z,6.33
2018-04-02T00:49:49.430Z,7.10
2018-04-02T00:52:16.915Z,6.43
2018-04-02T00:54:44.784Z,6.50
2018-04-02T00:57:12.268Z,6.27
2018-04-02T00:59:39.762Z,6.00
2018-04-02T01:02:07.242Z,6.37
2018-04-02T01:04:34.771Z,6.27
2018-04-02T01:07:02.341Z,6.57
2018-04-02T01:09:29.964Z,6.73
2018-04-02T01:11:57.462Z,6.10
2018-04-02T01:14:24.946Z,5.87
2018-04-02T01:16:52.434Z,5.70
2018-04-02T01:19:19.988Z,6.07
2018-04-02T01:21:47.464Z,6.17
2018-04-02T01:24:14.950Z,5.87
2018-04-02T01:26:43.325Z,6.40
2018-04-02T01:29:10.823Z,5.47
2018-04-02T01:31:38.604Z,5.17
2018-04-02T01:34:06.093Z,5.10
2018-04-02T01:36:33.761Z,5.70
2018-04-02T01:39:01.365Z,4.83
2018-04-02T01:41:28.910Z,5.30
2018-04-02T01:43:56.425Z,5.00
2018-04-02T01:46:24.133Z,5.27
2018-04-02T01:48:51.624Z,5.83
2018-04-02T01:51:19.391Z,5.53
2018-04-02T01:53:46.909Z,5.27
2018-04-02T01:56:14.434Z,5.53
2018-04-02T01:58:41.968Z,5.23
2018-04-02T02:01:09.447Z,4.90
2018-04-02T02:03:36.930Z,5.00
2018-04-02T02:06:04.506Z,5.00
2018-04-02T02:08:31.985Z,5.27
2018-04-02T02:10:59.729Z,5.30
2018-04-02T02:13:27.231Z,4.40
2018-04-02T02:15:54.709Z,4.43
2018-04-02T02:18:22.297Z,4.83
2018-04-02T02:20:49.957Z,4.57
2018-04-02T02:23:17.460Z,4.50
2018-04-02T02:25:45.014Z,5.27
2018-04-02T02:28:12.492Z,5.13
2018-04-02T02:30:40.354Z,4.87
2018-04-02T02:33:07.848Z,5.53
2018-04-02T02:35:35.333Z,4.93
2018-04-02T02:38:02.820Z,5.20
2018-04-02T02:40:30.291Z,5.17
2018-04-02T02:42:57.850Z,4.47
2018-04-02T02:45:25.507Z,4.57
2018-04-02T02:47:53.059Z,5.27
2018-04-02T02:50:20.534Z,5.13
2018-04-02T02:52:48.280Z,4.93
2018-04-02T02:55:15.923Z,5.37
2018-04-02T02:57:43.724Z,4.50
2018-04-02T03:00:11.323Z,4.87
2018-04-02T03:02:38.869Z,5.00
2018-04-02T03:05:06.356Z,5.13
2018-04-02T03:07:33.850Z,5.17
2018-04-02T03:10:01.327Z,5.00
2018-04-02T03:12:28.825Z,4.77
2018-04-02T03:14:56.322Z,4.93
2018-04-02T03:17:23.803Z,4.93
2018-04-02T03:19:51.284Z,4.70
2018-04-02T03:22:18.763Z,5.17
2018-04-02T03:24:46.244Z,5.13
2018-04-02T03:27:13.734Z,4.60
2018-04-02T03:29:41.216Z,5.03
2018-04-02T03:32:08.713Z,4.73
2018-04-02T03:34:36.249Z,4.87
2018-04-02T03:37:03.733Z,5.57
2018-04-02T03:39:31.210Z,4.60
2018-04-02T03:41:58.709Z,5.10
2018-04-02T03:44:26.192Z,4.73
2018-04-02T03:46:53.704Z,5.30
2018-04-02T03:49:21.190Z,4.40
2018-04-02T03:51:48.689Z,4.80
2018-04-02T03:54:16.242Z,4.53
2018-04-02T03:56:43.723Z,4.37
2018-04-02T03:59:11.210Z,4.47
2018-04-02T04:01:38.696Z,4.93
2018-04-02T04:04:06.186Z,5.07
2018-04-02T04:06:34.112Z,4.63
2018-04-02T04:09:01.597Z,5.13
2018-04-02T04:11:29.148Z,4.37
2018-04-02T04:13:56.629Z,4.37
2018-04-02T04:16:24.141Z,4.50
2018-04-02T04:18:51.622Z,4.70
2018-04-02T04:21:19.103Z,4.93
2018-04-02T04:23:46.876Z,4.23
2018-04-02T04:26:14.368Z,3.90
2018-04-02T04:28:41.846Z,4.90
2018-04-02T04:31:09.443Z,4.53
2018-04-02T04:33:36.932Z,4.43
2018-04-02T04:36:04.949Z,4.93
2018-04-02T04:38:32.832Z,4.90
2018-04-02T04:41:00.324Z,4.87
2018-04-02T04:43:27.828Z,4.93
2018-04-02T04:45:55.344Z,4.50
2018-04-02T04:48:22.844Z,4.70
2018-04-02T04:50:50.410Z,4.83
2018-04-02T04:53:17.959Z,5.37
2018-04-02T04:55:45.771Z,5.70
2018-04-02T04:58:13.236Z,5.60
2018-04-02T05:00:40.728Z,5.80
2018-04-02T05:03:08.254Z,4.90
2018-04-02T05:05:36.003Z,4.87
2018-04-02T05:08:03.494Z,4.00
2018-04-02T05:10:31.749Z,4.13
2018-04-02T05:12:59.249Z,4.40
2018-04-02T05:15:26.745Z,4.17
2018-04-02T05:17:54.225Z,4.37
2018-04-02T05:20:21.709Z,4.50
2018-04-02T05:22:49.195Z,4.87
2018-04-02T05:25:16.678Z,5.07
2018-04-02T05:27:44.158Z,4.83
2018-04-02T05:30:11.797Z,4.73
2018-04-02T05:32:39.269Z,5.07
2018-04-02T05:35:06.762Z,6.47
2018-04-02T05:37:34.360Z,5.67
2018-04-02T05:40:02.016Z,5.90
2018-04-02T05:42:30.217Z,5.23
2018-04-02T05:44:57.869Z,4.80
2018-04-02T05:47:25.588Z,4.60
2018-04-02T05:49:53.174Z,5.07
2018-04-02T05:52:20.833Z,5.13
2018-04-02T05:54:48.535Z,4.63
2018-04-02T05:57:16.377Z,4.10
2018-04-02T05:59:43.861Z,4.40
2018-04-02T06:02:11.365Z,4.30
2018-04-02T06:04:38.834Z,4.00
2018-04-02T06:07:06.445Z,3.67
2018-04-02T06:09:33.936Z,4.50
2018-04-02T06:12:01.419Z,3.70
2018-04-02T06:14:28.970Z,3.73
2018-04-02T06:16:56.455Z,3.90
2018-04-02T06:19:23.938Z,3.67
2018-04-02T06:21:51.738Z,4.07
2018-04-02T06:24:19.395Z,3.83
2018-04-02T06:26:47.104Z,12.53
2018-04-02T06:29:14.889Z,8.93
2018-04-02T06:31:42.500Z,5.03
2018-04-02T06:34:09.994Z,4.20
2018-04-02T06:36:37.608Z,4.27
2018-04-02T06:39:05.154Z,4.27
2018-04-02T06:41:32.685Z,4.10
2018-04-02T06:44:00.164Z,4.27
2018-04-02T06:46:28.273Z,3.57
2018-04-02T06:48:55.765Z,4.37
2018-04-02T06:51:23.531Z,3.80
2018-04-02T06:53:51.187Z,3.30
2018-04-02T06:56:18.678Z,3.80
2018-04-02T06:58:46.387Z,3.17
2018-04-02T07:01:13.950Z,3.60
2018-04-02T07:03:41.485Z,3.97
2018-04-02T07:06:08.964Z,3.27
2018-04-02T07:08:36.446Z,3.93
2018-04-02T07:11:03.917Z,3.33
2018-04-02T07:13:31.416Z,3.67
2018-04-02T07:15:58.901Z,3.40
2018-04-02T07:18:27.376Z,3.77
2018-04-02T07:20:54.855Z,4.07
2018-04-02T07:23:22.633Z,4.20
2018-04-02T07:25:50.145Z,4.10
2018-04-02T07:28:17.942Z,3.93
2018-04-02T07:30:45.426Z,3.67
2018-04-02T07:33:12.904Z,3.23
2018-04-02T07:35:40.374Z,3.87
2018-04-02T07:38:07.854Z,3.83
2018-04-02T07:40:35.365Z,3.90
2018-04-02T07:43:02.860Z,3.97
2018-04-02T07:45:30.366Z,3.87
2018-04-02T07:47:57.880Z,3.93
2018-04-02T07:50:25.617Z,3.70
2018-04-02T07:52:53.160Z,3.50
2018-04-02T07:55:20.629Z,4.30
2018-04-02T07:57:48.110Z,3.70
2018-04-02T08:00:15.680Z,3.77
2018-04-02T08:02:43.213Z,3.80
2018-04-02T08:05:10.685Z,2.90
2018-04-02T08:07:38.172Z,3.27
2018-04-02T08:10:05.689Z,3.00
2018-04-02T08:12:33.232Z,3.33
2018-04-02T08:15:00.707Z,2.60
2018-04-02T08:17:28.246Z,3.33
2018-04-02T08:19:55.745Z,2.97
2018-04-02T08:22:23.788Z,2.80
2018-04-02T08:24:51.275Z,3.97
2018-04-02T08:27:18.761Z,3.73
2018-04-02T08:29:46.234Z,3.43
2018-04-02T08:32:13.719Z,3.27
2018-04-02T08:34:41.209Z,2.47
2018-04-02T08:37:08.733Z,2.70
2018-04-02T08:39:36.222Z,2.60
2018-04-02T08:42:03.712Z,3.10
2018-04-02T08:44:31.189Z,2.80
2018-04-02T08:46:58.672Z,3.17
2018-04-02T08:49:26.143Z,3.40
2018-04-02T08:51:53.620Z,2.97
2018-04-02T08:54:21.165Z,3.20
2018-04-02T08:56:48.761Z,3.10
2018-04-02T08:59:16.253Z,2.87
2018-04-02T09:01:43.815Z,2.70
2018-04-02T09:04:11.309Z,2.77
2018-04-02T09:06:38.825Z,3.07
2018-04-02T09:09:06.405Z,2.70
2018-04-02T09:11:33.949Z,2.70
2018-04-02T09:14:01.497Z,2.50
2018-04-02T09:16:28.988Z,2.70
2018-04-02T09:18:56.558Z,2.60
2018-04-02T09:21:24.187Z,2.73
2018-04-02T09:23:51.743Z,3.50
2018-04-02T09:26:19.829Z,2.40
2018-04-02T09:28:47.548Z,2.80
2018-04-02T09:31:15.295Z,2.90
2018-04-02T09:33:42.984Z,3.30
2018-04-02T09:36:10.619Z,3.33
2018-04-02T09:38:38.276Z,3.00
2018-04-02T09:41:05.902Z,2.93
2018-04-02T09:43:33.542Z,2.43
2018-04-02T09:46:01.429Z,2.33
2018-04-02T09:48:29.115Z,1.50
2018-04-02T09:50:56.793Z,1.43
2018-04-02T09:53:24.404Z,1.40
2018-04-02T09:55:52.306Z,1.43
2018-04-02T09:58:20.889Z,1.40
2018-04-02T10:00:48.979Z,2.70
2018-04-02T10:03:16.770Z,1.50
2018-04-02T10:05:44.374Z,1.70
2018-04-02T10:08:12.020Z,1.60
2018-04-02T10:10:39.701Z,1.37
2018-04-02T10:13:07.386Z,1.47
2018-04-02T10:15:34.888Z,1.20
2018-04-02T10:18:02.804Z,1.20
2018-04-02T10:20:30.333Z,1.40
2018-04-02T10:22:57.814Z,1.60
2018-04-02T10:25:25.346Z,1.30
2018-04-02T10:27:52.857Z,1.90
2018-04-02T10:30:20.382Z,1.30
2018-04-02T10:32:47.869Z,1.30
2018-04-02T10:35:15.361Z,1.30
2018-04-02T10:37:42.856Z,1.20
2018-04-02T10:40:10.383Z,1.37
2018-04-02T10:42:37.915Z,1.20
2018-04-02T10:45:05.392Z,1.30
2018-04-02T10:47:32.873Z,1.20
2018-04-02T10:50:00.338Z,1.60
2018-04-02T10:52:27.995Z,1.00
2018-04-02T10:54:55.541Z,1.10
2018-04-02T10:57:23.038Z,1.07
2018-04-02T10:59:50.525Z,0.93
2018-04-02T11:02:18.655Z,1.10
2018-04-02T11:04:46.454Z,1.23
2018-04-02T11:07:13.935Z,1.73
2018-04-02T11:09:41.433Z,0.90
2018-04-02T11:12:08.928Z,1.00
2018-04-02T11:14:36.752Z,1.10
2018-04-02T11:17:04.316Z,1.70
2018-04-02T11:19:32.117Z,1.50
2018-04-02T11:22:00.115Z,1.27
2018-04-02T11:24:27.763Z,1.40
2018-04-02T11:26:55.360Z,1.20
2018-04-02T11:29:22.952Z,0.90
2018-04-02T11:31:51.388Z,0.90
2018-04-02T11:34:19.604Z,1.10
2018-04-02T11:36:47.125Z,1.07
2018-04-02T11:39:14.907Z,1.47
2018-04-02T11:41:42.759Z,1.00
2018-04-02T11:44:10.955Z,1.10
2018-04-02T11:46:39.197Z,1.60
2018-04-02T11:49:06.697Z,1.03
2018-04-02T11:51:34.361Z,1.10
2018-04-02T11:54:01.893Z,1.67
2018-04-02T11:56:29.816Z,1.40
2018-04-02T11:58:57.332Z,0.80
2018-04-02T12:01:24.809Z,1.57
2018-04-02T12:03:52.360Z,1.30
2018-04-02T12:06:20.861Z,1.23
2018-04-02T12:08:48.386Z,1.23
2018-04-02T12:11:15.872Z,1.30
2018-04-02T12:13:43.350Z,1.17
2018-04-02T12:16:10.857Z,1.30
2018-04-02T12:18:38.433Z,1.10
2018-04-02T12:21:06.001Z,1.30
2018-04-02T12:23:33.999Z,1.33
2018-04-02T12:26:01.850Z,1.03
2018-04-02T12:28:29.897Z,1.23
2018-04-02T12:30:57.653Z,1.23
2018-04-02T12:33:25.291Z,1.13
2018-04-02T12:35:53.446Z,0.97
2018-04-02T12:38:21.595Z,1.53
2018-04-02T12:40:49.256Z,1.10
2018-04-02T12:43:16.992Z,1.10
2018-04-02T12:45:44.743Z,1.07
2018-04-02T12:48:12.417Z,1.37
2018-04-02T12:50:40.112Z,1.30
2018-04-02T12:53:07.780Z,0.80
2018-04-02T12:55:35.452Z,1.10
2018-04-02T12:58:03.237Z,1.10
2018-04-02T13:00:30.953Z,1.00
2018-04-02T13:02:58.666Z,1.30
2018-04-02T13:05:26.354Z,0.90
2018-04-02T13:07:54.121Z,0.90
2018-04-02T13:10:22.165Z,1.00
2018-04-02T13:12:49.806Z,1.93
2018-04-02T13:15:17.646Z,1.10
2018-04-02T13:17:45.521Z,1.00
2018-04-02T13:20:13.235Z,1.03
2018-04-02T13:22:41.024Z,1.27
2018-04-02T13:25:08.875Z,1.20
2018-04-02T13:27:36.470Z,0.90
2018-04-02T13:30:04.109Z,1.20
2018-04-02T13:32:31.782Z,1.10
2018-04-02T13:34:59.444Z,1.00
2018-04-02T13:37:27.089Z,1.10
2018-04-02T13:39:54.737Z,1.23
2018-04-02T13:42:22.475Z,1.10
2018-04-02T13:44:50.221Z,1.10
2018-04-02T13:47:17.981Z,1.43
2018-04-02T13:49:46.476Z,1.10
2018-04-02T13:52:15.042Z,1.40
2018-04-02T13:54:43.864Z,1.30
2018-04-02T13:57:11.700Z,1.13
2018-04-02T13:59:40.258Z,1.30
2018-04-02T14:02:08.083Z,1.10
2018-04-02T14:04:36.843Z,1.33
2018-04-02T14:07:05.865Z,1.10
2018-04-02T14:09:33.744Z,1.40
2018-04-02T14:12:01.515Z,0.93
2018-04-02T14:14:30.028Z,0.93
2018-04-02T14:16:57.796Z,1.03
2018-04-02T14:19:25.583Z,1.53
2018-04-02T14:21:53.402Z,1.23
2018-04-02T14:24:21.231Z,1.20
2018-04-02T14:26:50.240Z,1.83
2018-04-02T14:29:18.884Z,1.20
2018-04-02T14:31:47.709Z,1.30
2018-04-02T14:34:16.548Z,0.97
2018-04-02T14:36:45.304Z,1.10
2018-04-02T14:39:14.012Z,2.93
2018-04-02T14:41:42.850Z,1.50
2018-04-02T14:44:11.676Z,1.37
2018-04-02T14:46:41.111Z,1.37
2018-04-02T14:49:09.548Z,1.43
2018-04-02T14:51:37.364Z,1.20
2018-04-02T14:54:06.229Z,1.53
2018-04-02T14:56:34.119Z,1.40
2018-04-02T14:59:01.929Z,1.27
2018-04-02T15:01:29.759Z,1.23
2018-04-02T15:03:57.605Z,1.20
2018-04-02T15:06:25.443Z,1.20
2018-04-02T15:08:53.300Z,1.40
2018-04-02T15:11:21.249Z,1.40
2018-04-02T15:13:49.113Z,1.40
2018-04-02T15:16:16.949Z,1.27
2018-04-02T15:18:44.826Z,1.53
2018-04-02T15:21:12.689Z,1.50
2018-04-02T15:23:40.857Z,1.87
2018-04-02T15:26:08.704Z,1.60
2018-04-02T15:28:37.509Z,1.57
2018-04-02T15:31:06.729Z,1.40
2018-04-02T15:33:34.561Z,1.30
2018-04-02T15:36:02.448Z,1.40
2018-04-02T15:38:30.291Z,1.20
2018-04-02T15:40:58.143Z,1.70
2018-04-02T15:43:26.074Z,1.53
2018-04-02T15:45:53.913Z,1.30
2018-04-02T15:48:21.724Z,1.47
2018-04-02T15:50:50.154Z,1.17
2018-04-02T15:53:18.045Z,1.30
2018-04-02T15:55:45.889Z,1.60
2018-04-02T15:58:13.737Z,1.67
2018-04-02T16:00:41.572Z,1.37
2018-04-02T16:03:09.492Z,1.87
2018-04-02T16:05:37.276Z,1.30
2018-04-02T16:08:05.110Z,1.33
2018-04-02T16:10:32.960Z,1.70
2018-04-02T16:13:00.969Z,1.33
2018-04-02T16:15:28.870Z,1.63
2018-04-02T16:17:56.693Z,1.73
2018-04-02T16:20:24.527Z,1.70
2018-04-02T16:22:52.887Z,1.67
2018-04-02T16:25:20.712Z,1.50
2018-04-02T16:27:48.566Z,1.47
2018-04-02T16:30:16.414Z,1.80
2018-04-02T16:32:44.246Z,1.57
2018-04-02T16:35:12.072Z,1.43
2018-04-02T16:37:39.908Z,1.70
2018-04-02T16:40:08.429Z,1.90
2018-04-02T16:42:36.356Z,1.57
2018-04-02T16:45:04.735Z,1.60
2018-04-02T16:47:32.577Z,1.80
2018-04-02T16:50:00.400Z,1.40
2018-04-02T16:52:28.247Z,1.57
2018-04-02T16:54:56.719Z,1.90
2018-04-02T16:57:24.539Z,1.47
2018-04-02T16:59:52.445Z,1.50
2018-04-02T17:02:22.099Z,1.57
2018-04-02T17:04:56.389Z,2.00
2018-04-02T17:07:24.994Z,2.10
2018-04-02T17:09:53.428Z,1.50
2018-04-02T17:12:21.362Z,1.10
2018-04-02T17:14:49.375Z,1.80
2018-04-02T17:17:17.215Z,1.67
2018-04-02T17:19:45.049Z,1.30
2018-04-02T17:22:12.977Z,1.70
2018-04-02T17:24:41.800Z,1.20
2018-04-02T17:27:10.180Z,1.27
2018-04-02T17:29:39.074Z,1.37
2018-04-02T17:32:06.945Z,1.67
2018-04-02T17:34:34.841Z,1.70
2018-04-02T17:37:02.688Z,1.80
2018-04-02T17:39:30.505Z,1.63
2018-04-02T17:41:59.035Z,1.50
2018-04-02T17:44:27.744Z,1.40
2018-04-02T17:46:56.377Z,1.60
2018-04-02T17:49:25.021Z,1.40
2018-04-02T17:51:52.914Z,1.33
2018-04-02T17:54:20.769Z,1.73
2018-04-02T17:56:48.648Z,1.30
2018-04-02T17:59:16.528Z,1.37
2018-04-02T18:01:44.400Z,1.40
2018-04-02T18:04:13.123Z,1.37
2018-04-02T18:06:42.126Z,1.30
2018-04-02T18:09:09.979Z,1.60
2018-04-02T18:11:37.818Z,1.30
2018-04-02T18:14:05.672Z,1.30
2018-04-02T18:16:33.596Z,1.03
2018-04-02T18:19:01.435Z,1.40
2018-04-02T18:21:29.342Z,2.00
2018-04-02T18:23:57.257Z,1.20
2018-04-02T18:26:25.075Z,1.33
2018-04-02T18:28:53.563Z,1.47
2018-04-02T18:31:24.165Z,2.07
2018-04-02T18:33:52.998Z,1.67
2018-04-02T18:36:22.225Z,1.70
2018-04-02T18:38:50.062Z,1.90
2018-04-02T18:41:17.905Z,2.37
2018-04-02T18:43:45.750Z,1.40
2018-04-02T18:46:13.629Z,1.43
2018-04-02T18:48:41.469Z,1.13
2018-04-02T18:51:09.313Z,1.50
2018-04-02T18:53:37.156Z,1.30
2018-04-02T18:56:05.030Z,1.60
2018-04-02T18:58:33.524Z,1.10
2018-04-02T19:01:01.460Z,1.60
2018-04-02T19:03:29.403Z,1.10
2018-04-02T19:05:57.320Z,2.03
2018-04-02T19:08:25.138Z,1.23
2018-04-02T19:10:52.956Z,1.00
2018-04-02T19:13:20.781Z,2.10
2018-04-02T19:15:48.603Z,1.60
2018-04-02T19:18:16.466Z,1.20
2018-04-02T19:20:44.303Z,1.50
2018-04-02T19:23:12.136Z,1.40
2018-04-02T19:25:40.015Z,3.50
2018-04-02T19:28:07.866Z,2.93
2018-04-02T19:30:35.692Z,4.20
2018-04-02T19:33:03.597Z,2.20
2018-04-02T19:35:31.497Z,1.27
2018-04-02T19:37:59.381Z,2.57
2018-04-02T19:40:27.228Z,1.40
2018-04-02T19:42:55.042Z,1.37
2018-04-02T19:45:22.884Z,1.50
2018-04-02T19:47:50.729Z,1.60
2018-04-02T19:50:18.559Z,1.30
2018-04-02T19:52:46.502Z,1.40
2018-04-02T19:55:14.438Z,1.20
2018-04-02T19:57:42.311Z,0.90
2018-04-02T20:00:10.163Z,0.90
2018-04-02T20:02:38.163Z,1.23
2018-04-02T20:05:06.013Z,1.23
2018-04-02T20:07:34.031Z,1.47
2018-04-02T20:10:02.888Z,1.27
2018-04-02T20:12:30.735Z,1.10
2018-04-02T20:14:58.577Z,0.83
2018-04-02T20:17:26.503Z,1.00
2018-04-02T20:19:54.325Z,1.10
2018-04-02T20:22:22.173Z,0.83
2018-04-02T20:24:51.076Z,1.00
2018-04-02T20:27:18.944Z,0.77
2018-04-02T20:29:46.777Z,1.23
2018-04-02T20:32:15.512Z,1.30
2018-04-02T20:34:47.335Z,0.90
2018-04-02T20:37:15.836Z,0.90
2018-04-02T20:39:44.562Z,1.03
2018-04-02T20:42:13.592Z,0.93
2018-04-02T20:44:42.429Z,1.00
2018-04-02T20:47:11.453Z,1.30
2018-04-02T20:49:39.643Z,1.00
2018-04-02T20:52:08.537Z,1.20
2018-04-02T20:54:36.367Z,1.10
2018-04-02T20:57:04.231Z,1.00
2018-04-02T20:59:32.865Z,1.00
2018-04-02T21:02:01.700Z,1.13
2018-04-02T21:04:30.730Z,1.30
2018-04-02T21:06:59.575Z,1.10
2018-04-02T21:09:27.414Z,1.00
2018-04-02T21:12:01.165Z,1.10
2018-04-02T21:14:29.996Z,1.27
2018-04-02T21:16:58.641Z,0.90
2018-04-02T21:19:26.477Z,1.13
2018-04-02T21:21:54.307Z,1.20
2018-04-02T21:24:22.878Z,0.90
2018-04-02T21:26:51.312Z,1.20
2018-04-02T21:29:20.240Z,1.00
2018-04-02T21:31:48.881Z,1.03
2018-04-02T21:34:17.519Z,1.27
2018-04-02T21:36:46.544Z,1.13
2018-04-02T21:39:15.377Z,1.30
2018-04-02T21:41:43.192Z,1.07
2018-04-02T21:44:11.080Z,1.33
2018-04-02T21:46:38.729Z,0.80
2018-04-02T21:49:06.582Z,1.37
2018-04-02T21:51:34.069Z,1.17
2018-04-02T21:54:01.736Z,1.00
2018-04-02T21:56:29.392Z,1.37
2018-04-02T21:58:57.048Z,1.20
2018-04-02T22:01:24.525Z,1.17
2018-04-02T22:03:52.010Z,1.27
2018-04-02T22:06:25.201Z,1.10
2018-04-02T22:08:52.647Z,1.47
2018-04-02T22:11:20.162Z,1.00
2018-04-02T22:13:47.689Z,1.50
2018-04-02T22:16:15.714Z,1.13
2018-04-02T22:18:43.204Z,1.23
2018-04-02T22:21:10.682Z,1.23
2018-04-02T22:23:38.175Z,1.23
2018-04-02T22:26:05.665Z,1.17
2018-04-02T22:28:33.138Z,1.17
2018-04-02T22:31:00.617Z,2.00
2018-04-02T22:33:28.093Z,0.83
2018-04-02T22:35:55.732Z,1.40
2018-04-02T22:38:23.222Z,1.37
2018-04-02T22:40:50.766Z,1.27
2018-04-02T22:43:19.077Z,1.30
2018-04-02T22:45:46.987Z,1.33
2018-04-02T22:48:14.553Z,1.23
2018-04-02T22:50:42.294Z,1.80
2018-04-02T22:53:09.776Z,0.83
2018-04-02T22:55:37.550Z,1.10
2018-04-02T22:58:05.039Z,1.73
2018-04-02T23:00:32.528Z,1.10
2018-04-02T23:03:00.160Z,1.20
2018-04-02T23:05:27.701Z,0.90
2018-04-02T23:07:55.271Z,0.97
2018-04-02T23:10:22.754Z,0.97
2018-04-02T23:12:50.283Z,1.10
2018-04-02T23:15:17.774Z,0.83
2018-04-02T23:17:45.645Z,0.87
2018-04-02T23:20:13.729Z,1.10
2018-04-02T23:22:47.327Z,0.93
2018-04-02T23:25:15.010Z,0.90
2018-04-02T23:27:42.516Z,0.93
2018-04-02T23:30:10.006Z,1.23
2018-04-02T23:32:37.714Z,1.00
2018-04-02T23:35:05.513Z,0.97
2018-04-02T23:37:33.028Z,1.00
2018-04-02T23:40:00.514Z,1.00
2018-04-02T23:42:28.077Z,0.80
2018-04-02T23:44:55.735Z,0.77
2018-04-02T23:47:23.232Z,0.93
2018-04-02T23:49:50.718Z,0.70
2018-04-02T23:52:18.528Z,0.80
2018-04-02T23:54:46.197Z,0.83
2018-04-02T23:57:13.671Z,0.97
2018-04-02T23:59:41.141Z,0.80
